Time;durP1;ratioP1;P1;durP2;ratioP2;P2;SDS_P1;SDS_P2;PMS_P1;PMS_P2;Temp;Humidity;BMP_temperature;BMP_pressure;BME280_temperature;BME280_humidity;BME280_pressure;Samples;Min_cycle;Max_cycle;Signal;HPM_P1;HPM_P2
2023/12/14 00:01:24;;;;;;;17.73;15.60;;;9.80;99.90;;;9.81;92.86;100899.94;4880356;29;20049;-67
2023/12/14 00:03:53;;;;;;;17.48;15.38;;;9.70;99.90;;;9.86;93.23;100913.16;4880404;29;20060;-67
2023/12/14 00:06:21;;;;;;;17.77;15.13;;;9.70;99.90;;;9.87;93.33;100918.41;4880270;29;20045;-69
2023/12/14 00:08:50;;;;;;;18.38;15.23;;;9.70;99.90;;;9.86;92.75;100929.00;4880641;29;20049;-67
2023/12/14 00:11:19;;;;;;;17.50;15.52;;;9.70;99.90;;;9.60;92.05;100923.72;4880157;29;20049;-67
2023/12/14 00:13:48;;;;;;;17.03;14.97;;;9.60;99.90;;;9.58;91.91;100932.53;4880623;29;20044;-69
2023/12/14 00:16:16;;;;;;;16.45;14.60;;;9.50;99.90;;;9.54;92.68;100941.34;4880348;29;20053;-69
2023/12/14 00:18:44;;;;;;;19.13;16.02;;;9.40;99.90;;;9.62;93.17;100953.63;4880043;29;20045;-69
2023/12/14 00:21:13;;;;;;;16.77;14.85;;;9.50;99.90;;;9.62;94.08;100943.06;4880070;29;20503;-69
2023/12/14 00:23:41;;;;;;;16.83;14.85;;;9.50;99.90;;;9.68;94.26;100948.38;4880128;29;20567;-69
2023/12/14 00:26:09;;;;;;;16.70;14.73;;;9.50;99.90;;;9.69;93.75;100955.44;4878817;29;20057;-69
2023/12/14 00:28:39;;;;;;;16.15;14.52;;;9.50;99.90;;;9.75;93.73;100962.47;4879910;29;20061;-69
2023/12/14 00:31:08;;;;;;;16.15;14.45;;;9.60;99.90;;;9.77;93.50;100964.25;4880236;29;20542;-69
2023/12/14 00:33:36;;;;;;;14.77;13.30;;;9.60;99.90;;;9.69;93.28;100966.00;4880143;29;20101;-67
2023/12/14 00:36:05;;;;;;;16.42;14.10;;;9.50;99.90;;;9.71;92.88;100980.06;4879758;29;20079;-67
2023/12/14 00:38:34;;;;;;;18.48;13.73;;;9.50;99.90;;;9.66;92.36;100980.94;4879755;29;20850;-68
2023/12/14 00:41:02;;;;;;;16.80;14.10;;;9.60;99.90;;;9.72;92.37;100989.75;4879877;29;20463;-68
2023/12/14 00:43:30;;;;;;;17.40;14.20;;;9.60;99.90;;;9.70;92.21;100991.50;4879777;29;20400;-69
2023/12/14 00:46:00;;;;;;;15.57;13.85;;;9.60;99.90;;;9.65;92.30;101000.31;4879710;29;20049;-69
2023/12/14 00:48:28;;;;;;;14.93;12.85;;;9.60;99.90;;;9.55;92.85;100996.78;4879624;29;20458;-69
2023/12/14 00:50:57;;;;;;;16.02;13.05;;;9.50;99.90;;;9.57;93.09;100997.66;4879510;29;20563;-69
2023/12/14 00:53:25;;;;;;;15.80;14.07;;;9.50;99.90;;;9.56;92.76;101010.88;4878781;29;20074;-70
2023/12/14 00:55:54;;;;;;;13.75;12.30;;;9.40;99.90;;;9.54;92.06;101009.97;4878400;29;20053;-67
2023/12/14 00:58:22;;;;;;;18.90;13.13;;;9.40;99.90;;;9.51;91.80;101015.25;4879678;29;20414;-69
2023/12/14 01:00:50;;;;;;;13.70;12.25;;;9.40;99.90;;;9.57;92.64;101029.34;4879377;29;20141;-70
2023/12/14 01:03:20;;;;;;;14.73;12.82;;;9.40;99.90;;;9.41;92.30;100998.50;4879105;29;20522;-69
2023/12/14 01:05:49;;;;;;;14.52;12.95;;;9.40;99.90;;;9.57;92.19;101025.81;4879313;29;20055;-69
2023/12/14 01:08:17;;;;;;;14.35;12.73;;;9.40;99.90;;;9.41;92.25;101014.34;4879675;29;20149;-69
2023/12/14 01:10:46;;;;;;;15.77;13.02;;;9.40;99.90;;;9.44;92.21;101040.75;4879251;29;20053;-71
2023/12/14 01:13:14;;;;;;;14.95;13.23;;;9.30;99.90;;;9.57;92.53;101049.59;4878272;29;20059;-69
2023/12/14 01:15:43;;;;;;;15.23;12.98;;;9.40;99.90;;;9.63;91.81;101045.22;4878147;29;20109;-69
2023/12/14 01:18:11;;;;;;;14.80;12.82;;;9.40;99.90;;;9.56;91.42;101053.97;4879205;29;20510;-69
2023/12/14 01:20:41;;;;;;;16.45;13.32;;;9.40;99.90;;;9.60;91.67;101060.16;4879292;29;20057;-69
2023/12/14 01:23:10;;;;;;;16.17;13.47;;;9.40;99.90;;;9.55;92.35;101033.75;4879168;29;20049;-69
2023/12/14 01:25:38;;;;;;;15.70;13.20;;;9.50;99.90;;;9.68;91.67;101075.13;4879180;29;20307;-69
2023/12/14 01:28:08;;;;;;;16.73;12.93;;;9.50;99.90;;;9.72;90.79;101081.31;4878944;29;20045;-69
2023/12/14 01:30:36;;;;;;;14.75;13.05;;;9.50;99.90;;;9.76;90.31;101086.59;4877868;29;20061;-69
2023/12/14 01:33:05;;;;;;;16.30;13.05;;;9.60;99.90;;;9.78;90.75;101087.50;4879050;29;20060;-69
2023/12/14 01:35:33;;;;;;;17.98;13.35;;;9.60;99.90;;;9.79;91.06;101077.81;4879097;29;20076;-69
2023/12/14 01:38:03;;;;;;;17.58;13.48;;;9.70;99.90;;;9.87;90.72;101091.94;4877873;29;20052;-70
2023/12/14 01:40:31;;;;;;;19.92;14.13;;;9.70;99.90;;;9.82;90.46;101099.84;4879664;29;20075;-69
2023/12/14 01:43:09;;;;;;;18.13;14.45;;;9.70;99.90;;;9.94;90.30;101098.97;4879021;29;20509;-69
2023/12/14 01:45:38;;;;;;;22.40;15.25;;;9.70;99.90;;;9.92;90.23;101111.28;4879135;29;20049;-69
2023/12/14 01:48:06;;;;;;;21.88;15.00;;;9.80;99.90;;;9.84;89.21;101106.00;4879182;29;20037;-69
2023/12/14 01:50:35;;;;;;;19.40;14.75;;;9.80;99.90;;;9.81;90.17;101111.25;4878785;29;20055;-69
2023/12/14 01:53:05;;;;;;;18.77;14.35;;;9.70;99.90;;;9.87;90.05;101113.91;4879372;29;20048;-69
2023/12/14 01:55:33;;;;;;;20.77;14.93;;;9.70;99.90;;;9.85;89.25;101133.31;4878982;29;20053;-69
2023/12/14 01:58:02;;;;;;;23.67;15.02;;;9.70;99.90;;;9.87;89.68;101127.13;4878947;29;20451;-69
2023/12/14 02:00:38;;;;;;;19.80;14.77;;;9.70;99.90;;;9.72;88.76;101131.50;4878797;29;20101;-69
2023/12/14 02:03:06;;;;;;;19.67;15.20;;;9.60;99.90;;;9.36;89.35;101065.34;4878776;29;20048;-69
2023/12/14 02:05:35;;;;;;;16.65;14.38;;;9.60;99.90;;;9.68;89.73;101135.88;4880475;29;20500;-69
2023/12/14 02:08:05;;;;;;;22.00;15.05;;;9.50;99.90;;;9.48;89.81;101142.88;4882621;29;20052;-69
2023/12/14 02:10:33;;;;;;;;;;;9.40;99.90;;;9.64;90.45;101149.09;4882869;29;20049;-70
2023/12/14 02:13:03;;;;;;;21.25;15.68;;;9.50;99.90;;;9.69;90.51;101149.97;4882697;29;19924;-69
2023/12/14 02:15:31;;;;;;;19.57;15.63;;;9.50;99.90;;;9.67;90.39;101165.81;4882324;29;20088;-69
2023/12/14 02:18:00;;;;;;;21.77;15.02;;;9.50;99.90;;;9.67;90.73;101175.50;4882497;29;20049;-67
2023/12/14 02:20:27;;;;;;;19.13;14.50;;;9.50;99.90;;;9.76;90.60;101173.78;4882063;29;20048;-69
2023/12/14 02:22:58;;;;;;;21.05;14.32;;;9.60;99.90;;;9.79;90.34;101179.06;4882180;29;20053;-69
2023/12/14 02:25:26;;;;;;;;;;;9.60;99.90;;;9.81;91.24;101182.59;4882986;29;20483;-69
2023/12/14 02:27:54;;;;;;;21.67;14.68;;;9.70;99.90;;;9.86;91.07;101180.88;4882155;29;20400;-70
2023/12/14 02:30:23;;;;;;;21.73;14.57;;;9.70;99.90;;;9.84;90.57;101198.47;4882021;29;20045;-69
2023/12/14 02:32:51;;;;;;;21.83;14.52;;;9.70;99.90;;;9.88;90.04;101194.06;4882224;29;20440;-67
2023/12/14 02:35:20;;;;;;;19.25;14.82;;;9.70;99.90;;;9.82;89.38;101179.09;4882079;29;20136;-69
2023/12/14 02:37:48;;;;;;;20.45;13.85;;;9.70;99.90;;;9.82;89.45;101178.19;4881905;29;20128;-69
2023/12/14 02:40:18;;;;;;;22.00;14.93;;;9.60;99.90;;;9.81;89.70;101189.66;4881879;29;20055;-67
2023/12/14 02:42:46;;;;;;;20.48;13.57;;;9.60;99.90;;;9.81;89.74;101192.28;4881812;29;20056;-68
2023/12/14 02:45:15;;;;;;;20.60;14.60;;;9.60;99.90;;;9.81;89.43;101176.44;4880597;29;20132;-68
2023/12/14 02:47:43;;;;;;;18.48;13.82;;;9.70;99.90;;;9.75;89.37;101186.97;4881560;29;20068;-68
2023/12/14 02:50:11;;;;;;;25.35;14.85;;;9.60;99.90;;;9.77;89.98;101186.13;4881717;29;20059;-68
2023/12/14 02:52:40;;;;;;;17.58;14.38;;;9.60;99.90;;;9.80;89.84;101193.16;4881777;29;20045;-68
2023/12/14 02:55:09;;;;;;;19.23;13.88;;;9.60;99.90;;;9.78;89.08;101202.84;4882079;29;20061;-68
2023/12/14 02:57:38;;;;;;;17.90;13.50;;;9.60;99.90;;;9.76;89.50;101200.19;4881659;29;20454;-68
2023/12/14 03:00:09;;;;;;;19.03;14.53;;;9.60;99.90;;;9.80;89.79;101211.66;4881390;29;20064;-70
2023/12/14 03:02:38;;;;;;;;;;;9.60;99.90;;;9.79;89.97;101212.53;4881930;29;20049;-69
2023/12/14 03:05:07;;;;;;;22.80;14.48;;;9.60;99.90;;;9.81;89.61;101214.28;4881431;29;19959;-68
2023/12/14 03:07:38;;;;;;;22.20;13.80;;;9.60;99.90;;;9.81;89.70;101218.72;4881355;29;20063;-69
2023/12/14 03:10:08;;;;;;;19.40;13.57;;;9.60;99.90;;;9.79;89.48;101216.03;4881447;29;20120;-68
2023/12/14 03:12:38;;;;;;;20.67;13.20;;;9.50;99.90;;;9.87;89.51;101226.66;4881293;29;20456;-67
2023/12/14 03:15:07;;;;;;;18.27;13.83;;;9.70;99.90;;;9.87;88.52;101224.88;4881541;29;20041;-68
2023/12/14 03:17:36;;;;;;;19.25;13.20;;;9.70;99.90;;;9.90;89.00;101229.31;4880471;29;20048;-67
2023/12/14 03:20:06;;;;;;;19.25;12.93;;;9.70;99.90;;;9.82;88.68;101226.63;4881296;29;20112;-68
2023/12/14 03:22:34;;;;;;;20.75;13.45;;;9.70;99.90;;;9.82;88.60;101221.34;4881277;29;20064;-68
2023/12/14 03:25:03;;;;;;;18.85;14.00;;;9.60;99.90;;;9.77;88.44;101225.75;4881054;29;20507;-69
2023/12/14 03:27:32;;;;;;;18.92;13.07;;;9.60;99.90;;;9.86;88.26;101223.13;4881633;29;20045;-68
2023/12/14 03:30:03;;;;;;;23.55;14.57;;;9.60;99.90;;;9.70;88.56;101220.41;4881206;29;20073;-67
2023/12/14 03:32:31;;;;;;;18.08;14.07;;;9.50;99.90;;;9.74;88.74;101231.00;4881146;29;20051;-68
2023/12/14 03:35:00;;;;;;;23.30;14.13;;;9.60;99.90;;;9.67;88.46;101230.97;4880890;29;20057;-68
2023/12/14 03:37:29;;;;;;;18.38;13.02;;;9.50;99.90;;;9.62;88.16;101233.56;4881033;29;20128;-68
2023/12/14 03:39:57;;;;;;;18.70;13.50;;;9.50;99.90;;;9.65;88.09;101245.91;4880991;29;20044;-67
2023/12/14 03:42:25;;;;;;;17.02;12.40;;;9.50;99.90;;;9.64;87.78;101247.66;4881153;29;20128;-70
2023/12/14 03:44:54;;;;;;;19.45;12.82;;;9.40;99.90;;;9.59;88.17;101245.88;4880706;29;20129;-68
2023/12/14 03:47:23;;;;;;;15.93;12.23;;;9.40;99.90;;;9.62;88.54;101252.06;4880780;29;20143;-68
2023/12/14 03:49:52;;;;;;;17.73;13.00;;;9.40;99.90;;;9.68;88.02;101260.00;4881153;29;20052;-68
2023/12/14 03:52:20;;;;;;;16.30;11.88;;;9.50;99.90;;;9.66;88.21;101258.22;4880972;29;20123;-68
2023/12/14 03:54:48;;;;;;;18.02;12.63;;;9.50;99.90;;;9.60;88.03;101250.31;4881007;29;20403;-68
2023/12/14 03:57:17;;;;;;;21.52;12.35;;;9.40;99.90;;;9.66;88.29;101261.75;4880517;29;20048;-68
2023/12/14 03:59:45;;;;;;;18.20;12.07;;;9.50;99.90;;;9.70;87.64;101260.91;4880582;29;20097;-67
2023/12/14 04:02:13;;;;;;;14.43;11.35;;;9.50;99.90;;;9.68;87.31;101251.19;4880440;29;20072;-67
2023/12/14 04:04:45;;;;;;;15.13;11.27;;;9.50;99.90;;;9.66;87.42;101251.19;4880226;29;20076;-69
2023/12/14 04:07:13;;;;;;;17.35;11.27;;;9.60;99.90;;;9.69;87.22;101264.44;4880643;29;20045;-68
2023/12/14 04:09:41;;;;;;;16.55;10.23;;;9.60;99.90;;;9.71;87.14;101272.38;4880211;29;20072;-67
2023/12/14 04:12:10;;;;;;;12.20;9.60;;;9.50;99.90;;;9.74;86.70;101275.91;4880234;29;20467;-68
2023/12/14 04:14:38;;;;;;;16.60;10.10;;;9.60;99.90;;;9.73;86.65;101279.44;4880264;29;20151;-68
2023/12/14 04:17:06;;;;;;;17.63;11.18;;;9.60;99.90;;;9.66;86.24;101280.25;4880153;29;20047;-67
2023/12/14 04:19:35;;;;;;;17.95;10.68;;;9.50;99.90;;;9.73;86.25;101290.00;4880023;29;20052;-68
2023/12/14 04:22:05;;;;;;;15.30;11.55;;;9.50;99.90;;;9.74;85.92;101297.03;4910245;29;20061;-68
2023/12/14 04:24:33;;;;;;;15.02;10.18;;;9.60;99.90;;;9.67;85.49;101303.16;4880151;29;20100;-69
2023/12/14 04:27:01;;;;;;;15.50;10.75;;;9.60;99.90;;;9.62;85.79;101307.53;4880180;29;20067;-67
2023/12/14 04:29:30;;;;;;;14.80;9.32;;;9.50;99.90;;;9.67;85.87;101320.75;4879781;29;20277;-68
2023/12/14 04:31:58;;;;;;;19.80;10.18;;;9.50;99.90;;;9.72;85.64;101321.66;4879805;29;20067;-67
2023/12/14 04:34:27;;;;;;;14.02;10.32;;;9.60;99.90;;;9.74;85.91;101330.47;4879812;29;20053;-68
2023/12/14 04:36:57;;;;;;;15.18;10.55;;;9.50;99.90;;;9.75;86.04;101334.91;4879850;29;20053;-68
2023/12/14 04:39:27;;;;;;;13.65;10.05;;;9.50;99.90;;;9.78;85.89;101341.09;4879965;29;20132;-68
2023/12/14 04:41:56;;;;;;;14.15;9.63;;;9.60;99.90;;;9.77;86.31;101351.66;4879803;29;20049;-67
2023/12/14 04:44:24;;;;;;;17.48;9.20;;;9.60;99.90;;;9.84;85.46;101354.34;4879631;29;20105;-68
2023/12/14 04:46:52;;;;;;;10.55;8.85;;;9.70;99.90;;;9.82;84.56;101368.41;4879884;29;20056;-68
2023/12/14 04:49:21;;;;;;;15.20;9.70;;;9.60;99.90;;;9.71;85.42;101365.72;4879961;29;20101;-68
2023/12/14 04:51:49;;;;;;;12.32;9.07;;;9.50;99.90;;;9.81;84.15;101375.44;4879658;29;20073;-68
2023/12/14 04:54:18;;;;;;;13.00;8.80;;;9.60;99.90;;;9.73;84.11;101379.81;4879555;29;20056;-67
2023/12/14 04:56:48;;;;;;;16.45;8.90;;;9.60;99.90;;;9.71;84.05;101380.66;4893745;29;20587;-68
2023/12/14 04:59:16;;;;;;;13.68;9.60;;;9.50;99.90;;;9.74;84.12;101381.56;4879539;29;20057;-68
2023/12/14 05:01:45;;;;;;;13.82;9.07;;;9.60;99.90;;;9.78;84.24;101387.75;4879487;29;20053;-67
2023/12/14 05:04:13;;;;;;;15.30;9.32;;;9.60;99.90;;;9.75;84.45;101383.34;4879211;29;20060;-68
2023/12/14 05:06:42;;;;;;;16.80;9.63;;;9.50;99.90;;;9.70;84.54;101387.69;4879453;29;20091;-69
2023/12/14 05:09:11;;;;;;;15.68;8.88;;;9.50;99.90;;;9.72;84.79;101382.41;4879248;29;20096;-67
2023/12/14 05:11:41;;;;;;;16.40;9.20;;;9.50;99.90;;;9.69;84.93;101378.03;4878055;29;20456;-68
2023/12/14 05:14:10;;;;;;;14.10;8.65;;;9.60;99.90;;;9.84;84.76;101399.25;4879451;29;20116;-68
2023/12/14 05:16:39;;;;;;;12.38;7.85;;;9.60;99.90;;;9.80;85.17;101402.75;4879865;29;20053;-68
2023/12/14 05:19:07;;;;;;;15.50;8.77;;;9.60;99.90;;;9.80;84.61;101393.94;4879155;29;20124;-68
2023/12/14 05:21:36;;;;;;;12.52;9.70;;;9.60;99.90;;;9.73;84.05;101387.72;4879119;29;20443;-68
2023/12/14 05:24:05;;;;;;;12.30;9.20;;;9.60;99.90;;;9.74;83.57;101405.34;4879032;29;20051;-68
2023/12/14 05:26:33;;;;;;;13.00;8.38;;;9.50;99.90;;;9.71;83.64;101393.88;4879244;29;20045;-68
2023/12/14 05:29:01;;;;;;;14.98;9.25;;;9.50;99.90;;;9.69;84.23;101409.72;4893520;29;20087;-68
2023/12/14 05:31:31;;;;;;;13.10;8.07;;;9.50;99.90;;;9.69;83.85;101409.72;4878958;29;20420;-68
2023/12/14 05:34:00;;;;;;;12.20;8.23;;;9.50;99.90;;;9.64;83.71;101402.63;4879211;29;20380;-68
2023/12/14 05:36:28;;;;;;;14.20;8.32;;;9.40;99.90;;;9.64;83.64;101419.34;4879182;29;20052;-68
2023/12/14 05:38:57;;;;;;;11.57;7.80;;;9.50;99.90;;;9.56;83.75;101420.16;4879007;29;20407;-68
2023/12/14 05:41:26;;;;;;;14.10;7.85;;;9.40;99.90;;;9.55;83.77;101427.19;4878814;29;20191;-69
2023/12/14 05:43:54;;;;;;;11.88;7.70;;;9.40;99.90;;;9.57;83.90;101430.75;4878844;29;20047;-67
2023/12/14 05:46:23;;;;;;;15.88;8.90;;;9.30;99.90;;;9.53;83.50;101436.88;4878854;29;20049;-68
2023/12/14 05:48:52;;;;;;;15.15;8.98;;;9.30;99.90;;;9.49;83.75;101437.69;4878766;29;20105;-69
2023/12/14 05:51:29;;;;;;;14.18;8.90;;;9.20;99.90;;;9.52;83.59;101437.75;4878986;29;20411;-68
2023/12/14 05:53:57;;;;;;;14.38;8.15;;;9.30;99.90;;;9.32;83.95;101420.81;4878854;29;20045;-68
2023/12/14 05:56:27;;;;;;;16.10;7.75;;;9.10;99.90;;;9.43;84.29;101445.56;4878923;29;20056;-69
2023/12/14 05:58:55;;;;;;;14.60;8.57;;;9.20;99.90;;;9.43;84.22;101460.50;4879078;29;20470;-68
2023/12/14 06:01:25;;;;;;;11.95;8.10;;;9.20;99.90;;;9.34;83.70;101452.50;4878686;29;20057;-68
2023/12/14 06:03:55;;;;;;;14.70;8.13;;;9.10;99.90;;;9.31;83.91;101469.19;4878541;29;20140;-68
2023/12/14 06:06:24;;;;;;;11.68;8.10;;;9.00;99.90;;;9.23;83.48;101481.47;4879094;29;20057;-68
2023/12/14 06:08:52;;;;;;;14.20;8.80;;;9.00;99.90;;;9.20;83.74;101477.88;4878583;29;20056;-68
2023/12/14 06:11:20;;;;;;;12.13;9.15;;;8.90;99.90;;;8.47;83.52;101346.94;4878640;29;20053;-68
2023/12/14 06:13:49;;;;;;;12.07;7.78;;;8.90;99.90;;;9.21;83.76;101491.13;4879080;29;20472;-68
2023/12/14 06:16:17;;;;;;;11.93;8.57;;;8.90;99.90;;;9.20;84.04;101505.16;4878533;29;20480;-69
2023/12/14 06:18:46;;;;;;;16.58;8.48;;;8.90;99.90;;;9.19;83.81;101505.16;4878788;29;20125;-68
2023/12/14 06:21:16;;;;;;;14.45;8.68;;;8.90;99.90;;;9.20;84.46;101514.81;4878811;29;20402;-68
2023/12/14 06:23:44;;;;;;;10.67;8.30;;;8.90;99.90;;;9.12;84.00;101525.28;4877540;29;20528;-68
2023/12/14 06:26:14;;;;;;;16.00;9.30;;;8.80;99.90;;;9.15;84.64;101520.06;4877880;29;20057;-68
2023/12/14 06:28:43;;;;;;;12.10;8.75;;;8.90;99.90;;;9.16;84.50;101531.50;4878602;29;20452;-69
2023/12/14 06:31:14;;;;;;;11.98;8.95;;;8.90;99.90;;;8.64;84.91;101458.75;4878679;29;20057;-68
2023/12/14 06:33:43;;;;;;;11.40;8.38;;;8.80;99.90;;;9.13;84.75;101539.38;4878525;29;20057;-67
2023/12/14 06:36:12;;;;;;;14.90;9.88;;;8.90;99.90;;;9.12;85.19;101538.47;4878573;29;20041;-68
2023/12/14 06:38:42;;;;;;;12.05;8.90;;;8.90;99.90;;;9.15;84.76;101546.47;4878485;29;20041;-68
2023/12/14 06:41:19;;;;;;;13.33;9.67;;;8.90;99.90;;;9.13;84.30;101549.94;4878409;29;20045;-68
2023/12/14 06:43:47;;;;;;;13.07;10.02;;;8.90;99.90;;;9.13;84.80;101549.94;4878364;29;20414;-68
2023/12/14 06:46:16;;;;;;;12.38;9.05;;;8.90;99.90;;;8.54;84.44;101451.56;4878333;29;20138;-69
2023/12/14 06:48:44;;;;;;;13.30;10.40;;;8.90;99.90;;;9.12;84.60;101556.97;4878344;29;20057;-69
2023/12/14 06:51:13;;;;;;;11.85;9.50;;;8.90;99.90;;;9.09;84.66;101567.50;4877121;29;20499;-68
2023/12/14 06:53:45;;;;;;;10.88;9.07;;;8.90;99.90;;;9.05;85.04;101570.94;4881814;29;20101;-68
2023/12/14 06:56:14;;;;;;;12.93;9.18;;;8.80;99.90;;;9.00;84.70;101567.38;4881897;29;20053;-68
2023/12/14 06:58:45;;;;;;;11.15;9.80;;;8.70;99.90;;;8.87;84.69;101579.50;4881489;29;20053;-68
2023/12/14 07:01:14;;;;;;;11.90;9.90;;;8.70;99.90;;;8.93;84.12;101582.22;4881540;29;20056;-68
2023/12/14 07:03:44;;;;;;;12.63;9.73;;;8.70;99.90;;;8.89;84.38;101571.59;4881805;29;20040;-68
2023/12/14 07:06:14;;;;;;;12.50;9.60;;;8.60;99.90;;;8.88;84.56;101585.69;4881722;29;20057;-69
2023/12/14 07:08:44;;;;;;;12.30;9.77;;;8.60;99.90;;;8.87;84.51;101579.50;4895889;29;20113;-68
2023/12/14 07:11:13;;;;;;;15.70;10.00;;;8.60;99.90;;;8.86;84.83;101592.69;4881169;29;20081;-68
2023/12/14 07:13:41;;;;;;;10.85;9.75;;;8.60;99.90;;;8.86;84.52;101596.22;4881069;29;20041;-68
2023/12/14 07:16:11;;;;;;;13.10;9.90;;;8.60;99.90;;;8.80;84.53;101605.78;4881024;29;20053;-68
2023/12/14 07:18:42;;;;;;;12.10;9.52;;;8.50;99.90;;;8.80;84.67;101608.41;4881101;29;20059;-68
2023/12/14 07:21:10;;;;;;;;;;;8.50;99.90;;;8.77;84.84;101616.25;4881620;29;20052;-68
2023/12/14 07:23:39;;;;;;;14.73;10.50;;;8.50;99.90;;;8.74;85.10;101622.41;4881299;29;20381;-68
2023/12/14 07:26:08;;;;;;;13.18;9.90;;;8.50;99.90;;;8.78;85.11;101620.69;4881033;29;20536;-68
2023/12/14 07:28:37;;;;;;;14.10;10.00;;;8.50;99.90;;;8.78;85.30;101613.69;4895590;29;20517;-68
2023/12/14 07:31:06;;;;;;;16.70;10.77;;;8.50;99.90;;;8.81;85.11;101623.38;4881054;29;20128;-68
2023/12/14 07:33:35;;;;;;;13.63;9.82;;;8.50;99.90;;;8.82;85.45;101622.53;4881108;29;20057;-68
2023/12/14 07:36:05;;;;;;;14.57;10.68;;;8.50;99.90;;;8.70;85.73;101624.97;4881068;29;20049;-69
2023/12/14 07:38:34;;;;;;;18.08;10.80;;;8.40;99.90;;;8.72;85.83;101621.50;4880801;29;20088;-69
2023/12/14 07:41:03;;;;;;;16.38;10.40;;;8.40;99.90;;;8.76;86.00;101617.16;4880678;29;20148;-68
2023/12/14 07:43:33;;;;;;;17.15;11.20;;;8.40;99.90;;;8.70;85.66;101617.06;4880692;29;20053;-66
2023/12/14 07:46:01;;;;;;;14.43;10.95;;;8.40;99.90;;;8.72;85.73;101612.69;4880666;29;20487;-66
2023/12/14 07:48:29;;;;;;;13.68;10.20;;;8.50;99.90;;;8.62;85.84;101621.31;4880767;29;20057;-67
2023/12/14 07:50:58;;;;;;;12.38;10.25;;;8.40;99.90;;;8.51;85.94;101612.38;4880235;29;20049;-66
2023/12/14 07:53:26;;;;;;;15.57;10.48;;;8.30;99.90;;;8.50;85.99;101624.66;4880278;29;20053;-66
2023/12/14 07:55:55;;;;;;;13.88;10.50;;;8.20;99.90;;;8.54;86.42;101625.56;4880543;29;20552;-67
2023/12/14 07:58:23;;;;;;;15.52;10.88;;;8.20;99.90;;;8.50;86.40;101623.75;4894806;29;20481;-66
2023/12/14 08:00:53;;;;;;;14.00;11.25;;;8.20;99.90;;;8.50;86.43;101626.38;4880836;29;20052;-67
2023/12/14 08:03:22;;;;;;;12.32;11.00;;;8.20;99.90;;;8.50;87.26;101642.22;4880239;29;20076;-68
2023/12/14 08:05:52;;;;;;;11.05;9.95;;;8.20;99.90;;;8.58;88.08;101645.88;4880657;29;20064;-69
2023/12/14 08:08:20;;;;;;;15.25;9.95;;;8.30;99.90;;;8.77;87.99;101655.84;4880565;29;20052;-65
2023/12/14 08:10:49;;;;;;;11.73;9.20;;;8.40;99.90;;;8.84;87.85;101653.34;4880056;29;20041;-66
2023/12/14 08:13:18;;;;;;;14.13;10.45;;;8.60;99.90;;;9.15;87.87;101673.13;4879157;29;20049;-65
2023/12/14 08:15:46;;;;;;;14.07;10.68;;;8.80;99.90;;;9.38;87.58;101674.34;4880690;29;20067;-65
2023/12/14 08:18:17;;;;;;;13.98;10.57;;;9.00;99.90;;;9.76;86.24;101685.38;4880328;29;20041;-66
2023/12/14 08:20:45;;;;;;;12.98;10.23;;;9.40;99.90;;;9.86;85.00;101693.44;4880163;29;20057;-65
2023/12/14 08:23:14;;;;;;;13.27;10.88;;;9.60;99.90;;;10.06;84.51;101700.69;4880328;29;20045;-67
2023/12/14 08:25:42;;;;;;;14.85;10.73;;;9.80;99.90;;;10.26;83.45;101707.13;4879948;29;20507;-69
2023/12/14 08:28:11;;;;;;;14.68;10.60;;;9.90;99.90;;;10.72;83.12;101715.47;4880165;29;20045;-68
2023/12/14 08:30:39;;;;;;;13.88;9.98;;;10.40;99.90;;;11.05;81.30;101717.53;4879570;29;20045;-69
2023/12/14 08:33:08;;;;;;;12.73;9.43;;;10.80;99.90;;;11.08;79.75;101722.84;4880267;29;20053;-69
2023/12/14 08:35:38;;;;;;;15.13;10.10;;;10.90;99.90;;;11.09;78.82;101721.09;4879832;29;20053;-68
2023/12/14 08:38:06;;;;;;;12.03;9.37;;;11.00;99.90;;;11.22;79.02;101725.59;4878600;29;20491;-68
2023/12/14 08:40:35;;;;;;;13.25;9.43;;;11.00;99.90;;;11.35;79.87;101728.31;4879717;29;20045;-69
2023/12/14 08:43:03;;;;;;;12.70;9.88;;;11.10;99.90;;;11.53;79.65;101736.38;4879773;29;20057;-69
2023/12/14 08:45:31;;;;;;;12.70;10.13;;;11.30;99.90;;;11.68;78.98;101730.31;4879770;29;20533;-68
2023/12/14 08:48:00;;;;;;;11.65;8.75;;;11.40;99.90;;;11.30;76.64;101740.66;4879903;29;20065;-68
2023/12/14 08:50:28;;;;;;;13.55;9.45;;;11.20;99.90;;;11.28;77.72;101745.06;4879534;29;20053;-68
2023/12/14 08:52:58;;;;;;;15.35;9.52;;;11.00;99.90;;;11.35;77.88;101748.63;4879551;29;20045;-68
2023/12/14 08:55:27;;;;;;;12.45;9.43;;;11.10;99.90;;;11.47;77.63;101743.41;4879857;29;20052;-68
2023/12/14 08:57:55;;;;;;;13.80;10.07;;;11.20;99.90;;;11.70;76.78;101747.09;4879997;29;20127;-68
2023/12/14 09:00:24;;;;;;;15.18;10.52;;;11.40;99.90;;;12.00;76.18;101751.66;4879561;29;20067;-68
2023/12/14 09:02:52;;;;;;;13.35;9.48;;;11.70;99.90;;;12.17;75.29;101753.50;4879343;29;20109;-68
2023/12/14 09:05:22;;;;;;;13.48;9.75;;;11.90;99.90;;;12.29;74.74;101760.59;4879106;29;20403;-67
2023/12/14 09:07:54;;;;;;;12.82;9.35;;;12.10;99.90;;;12.31;73.86;101772.97;4879275;29;20057;-69
2023/12/14 09:10:25;;;;;;;12.80;10.05;;;12.10;99.90;;;12.01;73.57;101764.91;4879292;29;20048;-68
2023/12/14 09:12:53;;;;;;;14.43;9.40;;;11.90;99.90;;;11.72;73.63;101774.50;4879317;29;20049;-68
2023/12/14 09:15:21;;;;;;;12.80;9.13;;;11.50;99.90;;;11.85;74.26;101778.06;4878322;29;20109;-68
2023/12/14 09:17:50;;;;;;;12.13;9.73;;;11.50;99.90;;;12.00;74.01;101783.47;4879088;29;20060;-68
2023/12/14 09:20:19;;;;;;;13.48;10.05;;;11.60;99.90;;;11.94;73.96;101792.28;4879109;29;20487;-69
2023/12/14 09:22:48;;;;;;;15.65;10.23;;;11.70;99.90;;;11.83;73.58;101777.22;4879159;29;20135;-69
2023/12/14 09:25:16;;;;;;;12.85;10.07;;;11.70;99.90;;;11.80;73.77;101807.22;4879046;29;20101;-70
2023/12/14 09:27:46;;;;;;;14.02;10.48;;;11.60;99.90;;;11.66;73.71;101807.16;4893425;29;20114;-68
2023/12/14 09:30:17;;;;;;;17.17;10.50;;;11.50;99.90;;;11.53;73.81;101801.72;4878962;29;20044;-68
2023/12/14 09:32:45;;;;;;;;;;;11.40;99.90;;;11.38;74.26;101805.13;4879348;29;20591;-68
2023/12/14 09:35:13;;;;;;;12.35;9.45;;;11.30;99.90;;;11.34;74.35;101810.44;4878957;29;19924;-68
2023/12/14 09:37:42;;;;;;;16.55;10.63;;;11.20;99.90;;;11.30;74.54;101820.13;4879358;29;20055;-68
2023/12/14 09:40:11;;;;;;;17.95;10.55;;;11.10;99.90;;;11.26;74.69;101823.63;4878805;29;20131;-68
2023/12/14 09:42:40;;;;;;;17.30;10.05;;;11.10;99.90;;;11.25;74.92;101816.53;4878808;29;20065;-68
2023/12/14 09:45:11;;;;;;;14.05;10.77;;;11.10;99.90;;;11.22;75.34;101835.06;4878957;29;20128;-68
2023/12/14 09:47:40;;;;;;;15.43;10.70;;;11.00;99.90;;;11.23;75.19;101831.53;4878914;29;20060;-69
2023/12/14 09:50:10;;;;;;;13.45;11.00;;;11.00;99.90;;;11.27;75.48;101830.66;4877626;29;20075;-69
2023/12/14 09:52:38;;;;;;;13.85;10.40;;;11.10;99.90;;;11.07;75.29;101821.66;4878933;29;20052;-69
2023/12/14 09:55:08;;;;;;;14.10;10.38;;;10.90;99.90;;;10.78;75.38;101828.47;4878701;29;20049;-68
2023/12/14 09:57:36;;;;;;;13.10;10.60;;;10.60;99.90;;;10.34;77.05;101821.78;4878782;29;20049;-68
2023/12/14 10:00:10;;;;;;;12.40;9.93;;;10.10;99.90;;;10.11;79.49;101821.50;4878712;29;20407;-68
2023/12/14 10:02:40;;;;;;;13.15;10.60;;;9.80;99.90;;;9.93;79.72;101822.13;4878700;29;20097;-68
2023/12/14 10:05:11;;;;;;;14.68;11.10;;;9.60;99.90;;;9.99;80.35;101819.56;4892965;29;20091;-68
2023/12/14 10:07:44;;;;;;;13.43;10.77;;;9.70;99.90;;;9.65;81.54;101817.34;4878647;29;20063;-69
2023/12/14 10:10:15;;;;;;;13.25;11.23;;;9.30;99.90;;;10.07;82.86;101829.34;4878634;29;20053;-68
2023/12/14 10:12:54;;;;;;;15.82;11.05;;;9.60;99.90;;;10.55;81.83;101835.28;4878674;29;20060;-67
2023/12/14 10:15:24;;;;;;;15.38;10.98;;;10.10;99.90;;;10.93;80.75;101849.78;4878805;29;20091;-68
2023/12/14 10:17:54;;;;;;;;;;;10.50;99.90;;;11.16;78.89;101869.44;4879067;29;20045;-68
2023/12/14 10:20:24;;;;;;;13.13;10.65;;;10.90;99.90;;;11.33;77.24;101857.22;4878871;29;19971;-68
2023/12/14 10:22:55;;;;;;;14.35;11.07;;;11.10;99.90;;;11.51;76.21;101861.78;4878480;29;20045;-68